createdAt,value
2022-10-06T00:01:48.162Z,11.27
2022-10-06T00:06:50.966Z,11.21
2022-10-06T00:11:52.625Z,11.24
2022-10-06T00:16:55.131Z,11.21
2022-10-06T00:21:56.825Z,11.20
2022-10-06T00:26:58.565Z,11.18
2022-10-06T00:32:00.239Z,11.15
2022-10-06T00:37:02.405Z,11.07
2022-10-06T00:42:04.300Z,11.06
2022-10-06T00:47:06.416Z,11.08
2022-10-06T00:52:11.833Z,11.09
2022-10-06T00:57:14.458Z,11.11
2022-10-06T01:02:32.653Z,11.15
2022-10-06T01:07:34.342Z,11.18
2022-10-06T01:12:36.366Z,11.19
2022-10-06T01:18:04.227Z,11.12
2022-10-06T01:23:07.275Z,11.07
2022-10-06T01:28:10.737Z,11.04
2022-10-06T01:33:12.765Z,11.05
2022-10-06T01:38:15.476Z,11.08
2022-10-06T01:43:17.386Z,11.17
2022-10-06T01:48:19.148Z,11.08
2022-10-06T01:53:21.514Z,10.95
2022-10-06T01:58:23.527Z,11.03
2022-10-06T02:03:25.405Z,11.10
2022-10-06T02:08:28.091Z,11.11
2022-10-06T02:13:32.629Z,11.17
2022-10-06T02:18:35.562Z,11.18
2022-10-06T02:23:37.392Z,11.07
2022-10-06T02:28:39.309Z,11.06
2022-10-06T02:33:44.815Z,11.13
2022-10-06T02:38:47.018Z,11.09
2022-10-06T02:43:49.517Z,11.03
2022-10-06T02:48:53.327Z,11.00
2022-10-06T02:53:55.945Z,11.03
2022-10-06T02:58:57.647Z,11.05
2022-10-06T03:04:02.900Z,11.09
2022-10-06T03:09:07.337Z,11.09
2022-10-06T03:14:11.345Z,10.98
2022-10-06T03:19:13.311Z,10.79
2022-10-06T03:24:17.410Z,10.78
2022-10-06T03:29:23.707Z,10.81
2022-10-06T03:34:29.379Z,10.75
2022-10-06T03:39:34.203Z,10.67
2022-10-06T03:44:36.895Z,10.70
2022-10-06T03:49:40.038Z,10.65
2022-10-06T03:54:41.979Z,10.67
2022-10-06T03:59:43.767Z,10.63
2022-10-06T04:04:45.606Z,10.68
2022-10-06T04:09:47.466Z,10.77
2022-10-06T04:14:50.645Z,10.70
2022-10-06T04:19:55.182Z,10.72
2022-10-06T04:24:56.950Z,10.69
2022-10-06T04:29:59.131Z,10.55
2022-10-06T04:35:01.043Z,10.54
2022-10-06T04:40:03.071Z,10.52
2022-10-06T04:45:07.737Z,10.57
2022-10-06T04:50:11.499Z,10.62
2022-10-06T04:55:21.265Z,10.49
2022-10-06T05:00:24.073Z,10.46
2022-10-06T05:05:26.095Z,10.49
2022-10-06T05:10:29.812Z,10.57
2022-10-06T05:15:32.346Z,10.50
2022-10-06T05:20:34.575Z,10.37
2022-10-06T05:25:37.091Z,10.36
2022-10-06T05:30:39.100Z,10.11
2022-10-06T05:35:54.549Z,10.20
2022-10-06T05:41:26.903Z,10.15
2022-10-06T05:46:31.573Z,10.31
2022-10-06T05:51:35.893Z,11.00
2022-10-06T05:56:42.621Z,11.33
2022-10-06T06:01:44.792Z,11.57
2022-10-06T06:07:01.341Z,11.69
2022-10-06T06:12:03.645Z,11.77
2022-10-06T06:17:13.594Z,11.97
2022-10-06T06:22:15.369Z,12.10
2022-10-06T06:27:20.241Z,12.20
2022-10-06T06:32:22.498Z,12.32
2022-10-06T06:37:24.735Z,12.46
2022-10-06T06:42:26.496Z,12.59
2022-10-06T06:47:34.976Z,12.73
2022-10-06T06:52:39.034Z,12.87
2022-10-06T06:57:46.402Z,12.97
2022-10-06T07:02:58.762Z,13.12
2022-10-06T07:08:01.018Z,13.24
2022-10-06T07:13:04.376Z,13.41
2022-10-06T07:18:25.028Z,13.60
2022-10-06T07:23:45.191Z,13.80
2022-10-06T07:28:53.902Z,14.00
2022-10-06T07:33:56.059Z,14.11
2022-10-06T07:38:58.299Z,14.19
2022-10-06T07:44:02.503Z,14.35
2022-10-06T07:49:08.386Z,14.56
2022-10-06T07:54:11.260Z,14.77
2022-10-06T07:59:36.368Z,14.96
2022-10-06T08:04:38.164Z,15.13
2022-10-06T08:09:39.922Z,15.34
2022-10-06T08:14:41.623Z,15.47
2022-10-06T08:19:43.486Z,15.58
2022-10-06T08:25:04.894Z,15.70
2022-10-06T08:30:07.763Z,15.88
2022-10-06T08:35:10.705Z,16.09
2022-10-06T08:40:14.745Z,16.26
2022-10-06T08:45:38.669Z,16.41
2022-10-06T08:51:19.598Z,16.71
2022-10-06T08:56:27.227Z,16.93
2022-10-06T09:01:47.682Z,17.09
2022-10-06T09:07:10.678Z,17.39
2022-10-06T09:12:45.271Z,17.78
2022-10-06T09:17:54.224Z,18.06
2022-10-06T09:22:56.887Z,18.36
2022-10-06T09:28:00.962Z,18.55
2022-10-06T09:33:05.730Z,18.60
2022-10-06T09:38:09.226Z,18.64
2022-10-06T09:43:25.489Z,18.70
2022-10-06T09:48:27.381Z,18.77
2022-10-06T09:53:29.072Z,18.78
2022-10-06T09:58:37.888Z,18.85
2022-10-06T10:04:08.438Z,19.03
2022-10-06T10:09:21.765Z,19.28
2022-10-06T10:14:24.392Z,19.06
2022-10-06T10:19:36.378Z,19.04
2022-10-06T10:24:56.430Z,18.90
2022-10-06T10:30:10.117Z,18.95
2022-10-06T10:35:20.390Z,18.91
2022-10-06T10:41:11.569Z,18.84
2022-10-06T10:46:22.348Z,18.91
2022-10-06T10:51:56.634Z,18.96
2022-10-06T10:56:58.690Z,19.03
2022-10-06T11:02:12.240Z,19.20
2022-10-06T11:07:23.388Z,19.37
2022-10-06T11:12:34.255Z,19.31
2022-10-06T11:17:45.019Z,19.38
2022-10-06T11:23:14.465Z,19.33
2022-10-06T11:28:39.374Z,19.40
2022-10-06T11:33:50.943Z,19.33
2022-10-06T11:39:02.010Z,19.35
2022-10-06T11:44:13.567Z,19.35
2022-10-06T11:49:30.670Z,19.44
2022-10-06T11:54:38.377Z,19.58
2022-10-06T11:59:40.116Z,19.59
2022-10-06T12:05:03.775Z,19.65
2022-10-06T12:10:27.319Z,19.74
2022-10-06T12:21:34.039Z,19.75
2022-10-06T12:26:49.152Z,19.71
2022-10-06T12:32:04.938Z,19.67
2022-10-06T12:37:31.281Z,19.66
2022-10-06T12:42:33.178Z,19.69
2022-10-06T12:47:41.526Z,19.67
2022-10-06T12:52:51.517Z,19.62
2022-10-06T12:57:54.107Z,19.67
2022-10-06T13:02:58.386Z,19.70
2022-10-06T13:08:05.989Z,19.65
2022-10-06T13:13:24.197Z,19.70
2022-10-06T13:18:28.391Z,19.74
2022-10-06T13:23:32.925Z,19.71
2022-10-06T13:28:44.380Z,19.70
2022-10-06T13:33:49.910Z,19.71
2022-10-06T13:38:53.262Z,19.71
2022-10-06T13:44:01.252Z,19.76
2022-10-06T13:49:12.911Z,19.76
2022-10-06T13:54:33.374Z,19.77
2022-10-06T13:59:39.871Z,19.89
2022-10-06T14:04:41.652Z,19.94
2022-10-06T14:09:43.454Z,19.92
2022-10-06T14:14:48.626Z,20.04
2022-10-06T14:19:51.047Z,20.09
2022-10-06T14:24:52.871Z,19.98
2022-10-06T14:29:55.987Z,20.05
2022-10-06T14:34:57.966Z,19.80
2022-10-06T14:40:00.012Z,19.56
2022-10-06T14:45:03.510Z,19.34
2022-10-06T14:50:05.573Z,19.23
2022-10-06T14:55:08.140Z,19.10
2022-10-06T15:00:10.549Z,19.04
2022-10-06T15:05:13.674Z,18.99
2022-10-06T15:10:15.462Z,18.98
2022-10-06T15:15:17.164Z,19.04
2022-10-06T15:20:18.981Z,19.23
2022-10-06T15:25:39.539Z,19.37
2022-10-06T15:30:41.854Z,19.34
2022-10-06T15:36:00.783Z,19.27
2022-10-06T15:41:04.466Z,19.28
2022-10-06T15:46:06.288Z,19.26
2022-10-06T15:51:08.181Z,19.17
2022-10-06T15:56:10.510Z,19.09
2022-10-06T16:01:39.261Z,18.86
2022-10-06T16:06:50.121Z,18.66
2022-10-06T16:11:52.203Z,18.54
2022-10-06T16:17:01.439Z,18.37
2022-10-06T16:22:09.001Z,18.06
2022-10-06T16:27:15.184Z,17.69
2022-10-06T16:32:17.232Z,17.45
2022-10-06T16:37:18.927Z,17.24
2022-10-06T16:42:20.672Z,17.19
2022-10-06T16:47:22.305Z,17.18
2022-10-06T16:52:24.117Z,16.83
2022-10-06T16:57:25.961Z,16.36
2022-10-06T17:02:27.651Z,16.34
2022-10-06T17:07:29.382Z,16.24
2022-10-06T17:12:31.063Z,16.10
2022-10-06T17:17:32.647Z,16.05
2022-10-06T17:22:34.355Z,16.01
2022-10-06T17:27:41.119Z,15.95
2022-10-06T17:32:45.054Z,16.00
2022-10-06T17:37:46.827Z,16.00
2022-10-06T17:42:48.496Z,15.85
2022-10-06T17:47:51.679Z,15.47
2022-10-06T17:52:53.422Z,15.08
2022-10-06T17:57:58.939Z,15.19
2022-10-06T18:03:00.756Z,15.23
2022-10-06T18:08:02.517Z,15.21
2022-10-06T18:13:04.272Z,15.21
2022-10-06T18:18:06.124Z,15.10
2022-10-06T18:23:09.271Z,15.01
2022-10-06T18:28:11.966Z,14.95
2022-10-06T18:38:41.611Z,14.68
2022-10-06T18:43:44.238Z,14.62
2022-10-06T18:48:55.232Z,14.42
2022-10-06T18:54:03.155Z,14.21
2022-10-06T18:59:13.009Z,14.28
2022-10-06T19:04:17.775Z,14.20
2022-10-06T19:09:24.478Z,14.17
2022-10-06T19:14:32.340Z,14.11
2022-10-06T19:19:34.055Z,13.98
2022-10-06T19:24:41.055Z,13.97
2022-10-06T19:29:50.621Z,13.96
2022-10-06T19:34:52.429Z,13.89
2022-10-06T19:39:54.312Z,13.80
2022-10-06T19:44:55.987Z,13.66
2022-10-06T19:50:02.043Z,13.35
2022-10-06T19:55:05.989Z,13.15
2022-10-06T20:00:10.135Z,13.08
2022-10-06T20:05:16.579Z,13.13
2022-10-06T20:10:18.569Z,13.16
2022-10-06T20:15:20.299Z,13.24
2022-10-06T20:20:21.894Z,13.16
2022-10-06T20:25:24.259Z,13.20
2022-10-06T20:30:26.009Z,13.23
2022-10-06T20:35:27.870Z,13.05
2022-10-06T20:40:46.975Z,12.97
2022-10-06T20:45:48.908Z,12.91
2022-10-06T20:50:50.609Z,12.82
2022-10-06T20:55:52.340Z,12.74
2022-10-06T21:00:54.158Z,12.65
2022-10-06T21:05:56.058Z,12.60
2022-10-06T21:10:59.750Z,12.49
2022-10-06T21:16:02.336Z,12.44
2022-10-06T21:21:07.637Z,12.41
2022-10-06T21:26:12.567Z,12.21
2022-10-06T21:31:18.139Z,12.22
2022-10-06T21:36:26.801Z,12.29
2022-10-06T21:41:37.276Z,12.29
2022-10-06T21:46:47.218Z,12.04
2022-10-06T21:51:52.251Z,12.05
2022-10-06T21:56:54.697Z,12.09
2022-10-06T22:01:56.965Z,11.92
2022-10-06T22:06:59.033Z,11.92
2022-10-06T22:12:00.908Z,11.96
2022-10-06T22:17:04.938Z,11.86
2022-10-06T22:22:06.745Z,11.87
2022-10-06T22:27:08.602Z,11.89
2022-10-06T22:32:10.453Z,11.85
2022-10-06T22:37:12.255Z,11.82
2022-10-06T22:42:14.052Z,11.77
2022-10-06T22:47:17.626Z,11.75
2022-10-06T22:52:19.706Z,11.75
2022-10-06T22:57:21.621Z,11.75
2022-10-06T23:02:23.517Z,11.76
2022-10-06T23:07:25.542Z,11.75
2022-10-06T23:12:27.332Z,11.64
2022-10-06T23:17:29.389Z,11.56
2022-10-06T23:22:31.237Z,11.47
2022-10-06T23:27:33.559Z,11.47
2022-10-06T23:32:37.505Z,11.43
2022-10-06T23:37:39.537Z,11.28
2022-10-06T23:42:41.397Z,11.24
2022-10-06T23:47:43.344Z,11.19
2022-10-06T23:52:45.436Z,10.98
2022-10-06T23:57:47.317Z,10.96
